Time;durP1;ratioP1;P1;durP2;ratioP2;P2;SDS_P1;SDS_P2;PMS_P1;PMS_P2;Temp;Humidity;BMP_temperature;BMP_pressure;BME280_temperature;BME280_humidity;BME280_pressure;Samples;Min_cycle;Max_cycle;Signal;HPM_P1;HPM_P2
2024/03/26 00:00:04;;;;;;;4.65;2.70;;;;;;;8.16;45.47;99310.28;5090742;28;20039;-40
2024/03/26 00:02:31;;;;;;;4.22;2.80;;;;;;;8.23;45.65;99316.44;5091348;28;20024;-40
2024/03/26 00:04:57;;;;;;;3.92;2.60;;;;;;;7.93;46.10;99322.00;5091022;28;20026;-39
2024/03/26 00:07:22;;;;;;;3.60;2.78;;;;;;;7.88;46.20;99319.16;5090871;28;20031;-39
2024/03/26 00:09:47;;;;;;;3.20;2.55;;;;;;;7.77;46.60;99323.16;5091302;28;20023;-39
2024/03/26 00:12:13;;;;;;;3.17;2.70;;;;;;;8.09;45.95;99322.69;5091675;28;20043;-41
2024/03/26 00:14:38;;;;;;;3.90;2.80;;;;;;;8.23;46.34;99319.91;5091047;28;20466;-41
2024/03/26 00:17:04;;;;;;;5.93;3.25;;;;;;;7.79;48.06;99320.31;5091796;28;20016;-40
2024/03/26 00:19:29;;;;;;;5.38;3.10;;;;;;;8.08;47.73;99321.06;5091707;28;20104;-38
2024/03/26 00:21:58;;;;;;;4.55;3.10;;;;;;;7.75;48.81;99325.19;5091585;28;20028;-38
2024/03/26 00:24:23;;;;;;;5.32;3.17;;;;;;;7.94;48.23;99321.00;5091317;28;20095;-39
2024/03/26 00:26:49;;;;;;;4.38;2.95;;;;;;;7.90;48.23;99326.88;5090771;28;20547;-40
2024/03/26 00:29:14;;;;;;;4.50;3.08;;;;;;;7.53;49.51;99327.09;5091465;28;20031;-39
2024/03/26 00:31:40;;;;;;;4.25;3.00;;;;;;;7.77;48.36;99320.50;5091329;28;20488;-38
2024/03/26 00:34:05;;;;;;;4.63;3.08;;;;;;;7.73;48.54;99321.09;5091225;28;20077;-36
2024/03/26 00:36:31;;;;;;;4.13;3.00;;;;;;;7.67;48.30;99313.94;5091406;28;20480;-39
2024/03/26 00:38:57;;;;;;;4.93;3.20;;;;;;;7.48;49.30;99331.31;5090990;28;20059;-38
2024/03/26 00:41:22;;;;;;;4.72;3.00;;;;;;;7.44;49.61;99321.13;5091189;28;20031;-39
2024/03/26 00:43:47;;;;;;;3.53;2.72;;;;;;;7.41;49.85;99326.81;5091267;28;20025;-39
2024/03/26 00:46:13;;;;;;;3.67;2.80;;;;;;;7.44;49.82;99317.66;5091013;28;20012;-39
2024/03/26 00:48:39;;;;;;;6.68;2.90;;;;;;;7.33;49.51;99313.72;5090695;28;20476;-40
2024/03/26 00:51:04;;;;;;;4.28;2.90;;;;;;;7.20;50.42;99324.22;5090899;28;20020;-38
2024/03/26 00:53:30;;;;;;;3.85;3.00;;;;;;;7.21;50.35;99321.34;5090986;28;20080;-38
2024/03/26 00:55:55;;;;;;;5.40;3.22;;;;;;;7.16;51.15;99323.78;5090723;28;20024;-39
2024/03/26 00:58:21;;;;;;;4.50;3.13;;;;;;;7.09;51.03;99324.72;5090623;28;20099;-39
2024/03/26 01:00:47;;;;;;;4.28;3.28;;;;;;;7.29;51.04;99319.56;5090716;28;20403;-39
2024/03/26 01:03:12;;;;;;;5.68;3.28;;;;;;;7.32;50.09;99316.56;5091055;28;20055;-38
2024/03/26 01:05:38;;;;;;;4.78;3.70;;;;;;;7.22;50.76;99319.53;5090666;28;20066;-40
2024/03/26 01:08:04;;;;;;;4.43;3.10;;;;;;;7.18;50.97;99319.09;5090784;28;20032;-41
2024/03/26 01:10:29;;;;;;;4.47;3.13;;;;;;;7.22;50.52;99327.47;5090740;28;20027;-40
2024/03/26 01:12:54;;;;;;;5.50;3.30;;;;;;;7.25;49.93;99319.13;5090528;28;20050;-40
2024/03/26 01:15:20;;;;;;;4.18;3.10;;;;;;;6.91;51.67;99322.53;5090628;28;20031;-37
2024/03/26 01:17:45;;;;;;;6.97;3.13;;;;;;;6.80;52.25;99311.44;5090572;28;20103;-36
2024/03/26 01:20:11;;;;;;;4.95;3.30;;;;;;;6.73;51.67;99312.41;5090786;28;20035;-39
2024/03/26 01:22:37;;;;;;;4.88;3.42;;;;;;;6.77;52.00;99306.53;5090814;28;20141;-37
2024/03/26 01:25:05;;;;;;;5.28;3.50;;;;;;;6.78;51.45;99307.38;5090220;28;20020;-42
2024/03/26 01:27:31;;;;;;;4.90;3.63;;;;;;;7.00;51.26;99308.97;5090626;28;20024;-39
2024/03/26 01:29:56;;;;;;;5.70;3.35;;;;;;;7.08;51.09;99312.50;5090422;28;20396;-38
2024/03/26 01:32:22;;;;;;;4.07;3.20;;;;;;;6.80;51.45;99306.16;5090270;28;20020;-38
2024/03/26 01:34:51;;;;;;;5.43;3.45;;;;;;;6.53;51.74;99305.09;5090521;28;20059;-38
2024/03/26 01:37:16;;;;;;;4.13;3.20;;;;;;;6.57;51.96;99318.75;5090259;28;20082;-39
2024/03/26 01:39:41;;;;;;;4.57;2.90;;;;;;;6.61;51.37;99312.91;5090213;28;20412;-37
2024/03/26 01:42:07;;;;;;;4.65;3.38;;;;;;;6.37;52.13;99306.13;5090249;28;20027;-39
2024/03/26 01:44:32;;;;;;;4.50;3.10;;;;;;;6.88;51.07;99309.69;5090013;28;20032;-38
2024/03/26 01:46:58;;;;;;;5.15;3.38;;;;;;;7.08;50.02;99301.91;5090401;28;20106;-39
2024/03/26 01:49:23;;;;;;;4.72;3.55;;;;;;;7.10;50.29;99307.81;5090411;28;20408;-37
2024/03/26 01:51:50;;;;;;;7.20;3.75;;;;;;;7.11;49.59;99304.19;5090197;28;20028;-40
2024/03/26 01:54:16;;;;;;;4.70;3.63;;;;;;;6.80;50.62;99315.94;5089758;28;20472;-40
2024/03/26 01:56:42;;;;;;;4.82;3.28;;;;;;;6.96;49.98;99317.50;5090248;28;20032;-40
2024/03/26 01:59:08;;;;;;;6.60;3.65;;;;;;;7.01;50.28;99321.19;5090459;28;20028;-40
2024/03/26 02:01:34;;;;;;;5.13;3.10;;;;;;;7.03;49.64;99318.38;5089945;28;20032;-37
2024/03/26 02:04:00;;;;;;;5.43;3.22;;;;;;;7.16;49.32;99325.56;5090061;28;20408;-39
2024/03/26 02:06:25;;;;;;;3.47;2.65;;;;;;;7.09;49.40;99327.38;5090308;28;20027;-39
2024/03/26 02:08:51;;;;;;;5.10;2.92;;;;;;;7.21;48.77;99331.13;5089376;28;20031;-39
2024/03/26 02:11:17;;;;;;;2.97;2.53;;;;;;;7.09;49.38;99336.13;5089762;28;20025;-39
2024/03/26 02:13:46;;;;;;;3.67;2.70;;;;;;;6.93;49.39;99336.38;5090313;28;20031;-40
2024/03/26 02:16:11;;;;;;;3.35;2.60;;;;;;;7.00;48.68;99338.06;5089934;28;20241;-40
2024/03/26 02:18:37;;;;;;;3.50;2.63;;;;;;;7.03;48.30;99347.47;5089970;28;20483;-40
2024/03/26 02:21:03;;;;;;;4.50;3.03;;;;;;;7.39;47.61;99349.19;5089946;28;20043;-39
2024/03/26 02:23:28;;;;;;;3.78;2.60;;;;;;;7.32;47.93;99348.31;5090323;28;20024;-38
2024/03/26 02:25:53;;;;;;;3.47;2.72;;;;;;;7.21;48.94;99344.34;5089893;28;20098;-37
2024/03/26 02:28:19;;;;;;;4.40;2.90;;;;;;;7.30;48.21;99353.81;5090155;28;20388;-39
2024/03/26 02:30:44;;;;;;;4.15;3.00;;;;;;;7.24;48.17;99352.72;5089746;28;20103;-39
2024/03/26 02:33:09;;;;;;;4.18;2.90;;;;;;;6.88;48.90;99347.53;5089661;28;20360;-37
2024/03/26 02:35:35;;;;;;;4.40;3.05;;;;;;;6.80;49.49;99340.53;5090137;28;20090;-39
2024/03/26 02:38:00;;;;;;;3.97;3.00;;;;;;;6.91;49.20;99341.03;5091008;28;20123;-38
2024/03/26 02:40:26;;;;;;;5.72;3.35;;;;;;;6.79;49.58;99335.44;5093287;28;20027;-39
2024/03/26 02:42:52;;;;;;;4.88;3.13;;;;;;;6.97;49.17;99342.94;5093703;28;20027;-40
2024/03/26 02:45:17;;;;;;;5.45;3.08;;;;;;;7.08;49.22;99349.53;5093493;28;20396;-39
2024/03/26 02:47:43;;;;;;;5.20;3.45;;;;;;;6.75;50.02;99344.75;5093340;28;20020;-39
2024/03/26 02:50:08;;;;;;;5.13;3.20;;;;;;;6.88;49.67;99350.19;5093389;28;20028;-39
2024/03/26 02:52:35;;;;;;;4.45;2.92;;;;;;;7.02;49.27;99357.22;5093266;28;20106;-39
2024/03/26 02:55:01;;;;;;;4.28;2.90;;;;;;;7.19;48.82;99354.31;5092829;28;20028;-39
2024/03/26 02:57:26;;;;;;;4.28;3.10;;;;;;;6.87;49.04;99361.75;5093181;28;20081;-37
2024/03/26 02:59:51;;;;;;;4.85;3.40;;;;;;;6.64;50.01;99361.94;5093081;28;20044;-38
2024/03/26 03:02:17;;;;;;;4.45;3.05;;;;;;;6.69;50.36;99362.19;5093007;28;20475;-39
2024/03/26 03:04:42;;;;;;;5.50;3.00;;;;;;;6.61;50.34;99360.50;5092826;28;20020;-39
2024/03/26 03:07:07;;;;;;;4.80;3.03;;;;;;;6.98;50.02;99365.72;5092978;28;20102;-39
2024/03/26 03:09:33;;;;;;;5.55;3.58;;;;;;;6.74;50.47;99359.81;5092549;28;20094;-39
2024/03/26 03:11:58;;;;;;;4.63;3.40;;;;;;;6.74;50.18;99362.47;5092574;28;20451;-38
2024/03/26 03:14:24;;;;;;;5.47;3.80;;;;;;;6.71;50.03;99368.13;5091793;28;20031;-40
2024/03/26 03:16:49;;;;;;;5.18;3.30;;;;;;;6.69;50.06;99361.38;5092639;28;20162;-39
2024/03/26 03:19:14;;;;;;;5.28;3.42;;;;;;;6.71;49.76;99367.31;5092926;28;20016;-40
2024/03/26 03:21:40;;;;;;;6.22;3.60;;;;;;;6.89;49.33;99366.88;5092634;28;20051;-39
2024/03/26 03:24:06;;;;;;;5.93;3.55;;;;;;;6.62;50.40;99364.75;5092256;28;20016;-40
2024/03/26 03:26:31;;;;;;;4.57;3.40;;;;;;;6.66;49.85;99362.56;5092443;28;20511;-39
2024/03/26 03:28:56;;;;;;;6.28;3.58;;;;;;;6.49;50.49;99363.78;5092407;28;20020;-40
2024/03/26 03:31:22;;;;;;;8.38;4.13;;;;;;;6.49;50.23;99369.91;5092019;28;20020;-40
2024/03/26 03:33:47;;;;;;;8.52;3.90;;;;;;;6.46;50.66;99368.44;5092430;28;20044;-39
2024/03/26 03:36:13;;;;;;;5.63;3.50;;;;;;;6.38;51.30;99371.22;5091543;28;20099;-40
2024/03/26 03:38:38;;;;;;;7.05;3.75;;;;;;;6.49;50.34;99364.59;5091722;28;20048;-40
2024/03/26 03:41:05;;;;;;;6.55;3.80;;;;;;;6.56;50.52;99372.63;5092218;28;20058;-40
2024/03/26 03:43:30;;;;;;;7.10;4.20;;;;;;;6.51;49.81;99382.94;5092010;28;20035;-39
2024/03/26 03:45:56;;;;;;;8.18;3.60;;;;;;;6.28;51.19;99383.88;5092028;28;20422;-38
2024/03/26 03:48:22;;;;;;;6.65;3.83;;;;;;;6.40;52.59;99381.59;5091807;28;20110;-39
2024/03/26 03:50:47;;;;;;;5.38;3.60;;;;;;;6.44;54.57;99386.31;5091784;28;20472;-39
2024/03/26 03:53:13;;;;;;;6.68;3.72;;;;;;;6.44;53.36;99396.09;5091635;28;20073;-40
2024/03/26 03:55:38;;;;;;;6.07;3.60;;;;;;;6.53;50.34;99376.47;5090422;28;20020;-39
2024/03/26 03:58:04;;;;;;;6.45;3.50;;;;;;;6.48;49.87;99393.91;5103054;28;20023;-40
2024/03/26 04:00:30;;;;;;;5.40;3.40;;;;;;;6.60;49.07;99395.03;5097778;28;20012;-40
2024/03/26 04:02:55;;;;;;;5.43;3.50;;;;;;;6.53;48.97;99405.56;5108547;28;20109;-39
2024/03/26 04:05:20;;;;;;;5.07;3.10;;;;;;;6.31;49.08;99409.94;5096146;28;20024;-40
2024/03/26 04:07:46;;;;;;;4.70;3.05;;;;;;;6.39;49.21;99416.97;5097474;28;20031;-38
2024/03/26 04:10:11;;;;;;;4.80;3.00;;;;;;;6.35;49.12;99419.16;5102419;28;20040;-37
2024/03/26 04:12:37;;;;;;;5.03;3.22;;;;;;;6.84;48.10;99415.88;5101217;28;20155;-39
2024/03/26 04:15:02;;;;;;;4.57;3.17;;;;;;;6.70;48.34;99416.75;5101533;28;20083;-39
2024/03/26 04:17:28;;;;;;;4.10;2.80;;;;;;;6.82;47.74;99423.16;5102319;28;20460;-40
2024/03/26 04:19:53;;;;;;;4.80;3.00;;;;;;;6.69;47.84;99435.44;5100483;28;20093;-40
2024/03/26 04:22:19;;;;;;;4.90;2.72;;;;;;;6.43;48.20;99442.00;5111862;28;20423;-37
2024/03/26 04:24:44;;;;;;;5.05;3.00;;;;;;;6.41;49.04;99449.31;5112192;27;20023;-41
2024/03/26 04:27:11;;;;;;;5.03;3.05;;;;;;;6.46;49.02;99454.88;5112480;28;20016;-40
2024/03/26 04:29:36;;;;;;;4.97;3.28;;;;;;;6.49;48.53;99453.69;5111997;27;20114;-40
2024/03/26 04:32:02;;;;;;;5.05;3.20;;;;;;;6.67;48.26;99445.38;5112656;28;20065;-40
2024/03/26 04:34:27;;;;;;;7.15;2.90;;;;;;;6.49;48.73;99454.50;5112101;28;20065;-39
2024/03/26 04:36:59;;;;;;;4.82;3.38;;;;;;;6.59;48.65;99457.69;5111930;28;20031;-39
2024/03/26 04:39:24;;;;;;;5.47;2.67;;;;;;;6.57;48.67;99454.41;5111997;28;20127;-40
2024/03/26 04:41:50;;;;;;;4.13;2.97;;;;;;;6.76;48.73;99437.16;5112103;28;20110;-40
2024/03/26 04:44:15;;;;;;;3.95;2.90;;;;;;;7.02;47.92;99451.66;5111784;28;20023;-40
2024/03/26 04:46:40;;;;;;;3.70;2.70;;;;;;;7.42;48.07;99452.88;5111709;28;20094;-39
2024/03/26 04:49:06;;;;;;;4.32;2.95;;;;;;;7.73;47.47;99461.47;5098753;28;20387;-40
2024/03/26 04:51:31;;;;;;;5.95;2.90;;;;;;;8.07;45.76;99466.00;5090923;28;20032;-40
2024/03/26 04:53:56;;;;;;;5.38;3.50;;;;;;;8.92;43.99;99469.31;5090836;28;20103;-40
2024/03/26 04:56:22;;;;;;;8.00;4.70;;;;;;;9.37;43.32;99474.13;5091445;28;20031;-41
2024/03/26 04:58:47;;;;;;;8.70;4.47;;;;;;;9.61;42.03;99478.03;5091181;28;20031;-40
2024/03/26 05:01:13;;;;;;;11.18;6.43;;;;;;;9.74;42.35;99487.84;5090668;28;20403;-40
2024/03/26 05:03:38;;;;;;;8.18;3.90;;;;;;;9.86;41.56;99496.84;5090343;28;20023;-40
2024/03/26 05:06:04;;;;;;;11.45;6.40;;;;;;;9.78;41.71;99502.34;5090249;28;20103;-40
2024/03/26 05:08:29;;;;;;;5.78;3.72;;;;;;;9.94;41.34;99501.97;5090327;28;20032;-39
2024/03/26 05:10:54;;;;;;;5.95;2.97;;;;;;;9.92;41.22;99497.88;5089902;28;20029;-41
2024/03/26 05:13:20;;;;;;;5.20;3.10;;;;;;;10.09;41.35;99496.44;5090153;28;20016;-40
2024/03/26 05:15:45;;;;;;;4.53;2.85;;;;;;;10.29;40.93;99495.59;5090197;28;20464;-40
2024/03/26 05:18:11;;;;;;;7.25;3.40;;;;;;;10.45;39.93;99495.19;5091107;28;20024;-39
2024/03/26 05:20:36;;;;;;;5.03;3.17;;;;;;;10.30;40.07;99484.78;5091204;28;20178;-40
2024/03/26 05:23:01;;;;;;;10.13;3.95;;;;;;;10.83;39.73;99481.09;5091111;28;20501;-40
2024/03/26 05:25:27;;;;;;;6.45;3.72;;;;;;;11.10;39.41;99486.31;5091078;28;20027;-41
2024/03/26 05:27:52;;;;;;;7.50;3.22;;;;;;;11.44;39.01;99481.59;5090911;28;20490;-40
2024/03/26 05:30:17;;;;;;;5.43;3.20;;;;;;;11.72;38.07;99483.88;5091191;28;20020;-40
2024/03/26 05:32:43;;;;;;;8.13;3.90;;;;;;;12.03;39.26;99480.38;5090938;28;20016;-40
2024/03/26 05:35:08;;;;;;;11.43;6.13;;;;;;;12.55;39.91;99461.34;5090743;28;20412;-40
2024/03/26 05:37:36;;;;;;;5.32;3.25;;;;;;;12.80;36.78;99458.59;5090120;28;20169;-40
2024/03/26 05:40:02;;;;;;;5.90;3.17;;;;;;;12.76;36.90;99454.72;5090657;28;20454;-41
2024/03/26 05:42:28;;;;;;;5.40;3.22;;;;;;;13.02;36.41;99468.78;5085189;28;20535;-43
2024/03/26 05:44:53;;;;;;;6.82;3.92;;;;;;;13.06;35.92;99483.31;5087573;28;20057;-40
2024/03/26 05:47:19;;;;;;;11.68;4.35;;;;;;;13.11;35.66;99486.13;5090940;28;20026;-43
2024/03/26 05:49:44;;;;;;;9.00;4.53;;;;;;;13.15;36.03;99483.81;5090693;28;20039;-40
2024/03/26 05:52:09;;;;;;;6.32;3.60;;;;;;;12.99;35.74;99474.59;5090591;28;20027;-41
2024/03/26 05:54:35;;;;;;;9.55;3.58;;;;;;;12.78;35.96;99497.25;5090276;28;20154;-42
2024/03/26 05:57:00;;;;;;;4.50;3.20;;;;;;;12.91;36.01;99491.75;5089870;28;20403;-41
2024/03/26 05:59:26;;;;;;;9.57;2.95;;;;;;;13.34;35.39;99484.59;5090706;28;20023;-43
2024/03/26 06:01:53;;;;;;;5.57;3.10;;;;;;;13.60;34.95;99486.09;5091129;28;20027;-42
2024/03/26 06:04:19;;;;;;;7.35;2.90;;;;;;;14.36;34.63;99492.41;5089806;28;20028;-37
2024/03/26 06:06:44;;;;;;;9.45;3.40;;;;;;;15.31;32.59;99481.47;5089713;28;20030;-41
2024/03/26 06:09:09;;;;;;;14.20;5.10;;;;;;;15.18;33.02;99494.09;5089881;28;20377;-41
2024/03/26 06:11:35;;;;;;;10.80;4.88;;;;;;;14.63;33.56;99499.97;5090471;28;20016;-45
2024/03/26 06:14:02;;;;;;;15.23;5.43;;;;;;;14.09;33.82;99494.75;5093959;28;20054;-41
2024/03/26 06:16:27;;;;;;;8.73;3.90;;;;;;;14.36;33.26;99487.03;5094836;28;20020;-41
2024/03/26 06:18:53;;;;;;;8.68;4.28;;;;;;;14.13;33.36;99495.09;5095217;28;20038;-43
2024/03/26 06:21:18;;;;;;;7.80;3.80;;;;;;;15.60;32.09;99501.78;5094745;28;20446;-41
2024/03/26 06:23:43;;;;;;;7.57;4.45;;;;;;;15.14;32.29;99505.53;5094616;28;20099;-42
2024/03/26 06:26:09;;;;;;;10.60;4.60;;;;;;;14.96;33.05;99498.47;5094118;28;20016;-42
2024/03/26 06:28:34;;;;;;;12.13;5.45;;;;;;;14.25;34.41;99501.25;5094501;28;20105;-41
2024/03/26 06:31:00;;;;;;;11.23;5.50;;;;;;;14.20;35.47;99499.28;5094526;28;20032;-41
2024/03/26 06:33:26;;;;;;;10.18;4.93;;;;;;;14.47;35.15;99499.59;5094635;28;20095;-42
2024/03/26 06:35:51;;;;;;;12.63;5.28;;;;;;;14.22;35.44;99501.69;5092754;28;20381;-44
2024/03/26 06:38:17;;;;;;;11.88;5.18;;;;;;;14.16;35.18;99499.97;5094276;28;20054;-40
2024/03/26 06:40:42;;;;;;;16.77;5.20;;;;;;;14.40;35.20;99498.09;5094793;28;20563;-42
2024/03/26 06:43:08;;;;;;;11.05;4.63;;;;;;;14.63;34.86;99497.28;5094719;28;20529;-42
2024/03/26 06:45:33;;;;;;;13.82;5.40;;;;;;;14.99;34.79;99492.66;5094249;28;20020;-45
2024/03/26 06:47:59;;;;;;;19.25;5.65;;;;;;;15.53;33.17;99492.28;5094763;28;20024;-41
2024/03/26 06:50:25;;;;;;;11.05;5.55;;;;;;;15.48;33.27;99493.03;5094357;28;20028;-40
2024/03/26 06:52:51;;;;;;;22.60;5.05;;;;;;;15.29;33.69;99484.38;5094574;28;20020;-42
2024/03/26 06:55:17;;;;;;;15.63;6.20;;;;;;;15.68;32.88;99489.03;5094668;28;20054;-43
2024/03/26 06:57:43;;;;;;;10.95;5.90;;;;;;;15.47;32.85;99482.53;5094750;28;20058;-43
2024/03/26 07:00:12;;;;;;;18.67;6.25;;;;;;;15.61;32.53;99491.88;5093927;28;20146;-40
2024/03/26 07:02:37;;;;;;;14.00;6.47;;;;;;;15.44;33.30;99495.38;5093166;28;20024;-41
2024/03/26 07:05:05;;;;;;;13.77;6.18;;;;;;;15.10;33.45;99499.84;5094190;28;20020;-42
2024/03/26 07:07:32;;;;;;;13.57;6.63;;;;;;;15.27;33.07;99496.38;5094484;28;20076;-37
2024/03/26 07:09:57;;;;;;;14.70;6.45;;;;;;;15.93;32.29;99496.72;5094242;28;20043;-42
2024/03/26 07:12:23;;;;;;;15.25;6.32;;;;;;;16.00;32.36;99495.50;5094273;28;20384;-41
2024/03/26 07:14:48;;;;;;;10.40;5.13;;;;;;;16.24;31.90;99498.00;5094031;28;20522;-42
2024/03/26 07:17:14;;;;;;;20.73;6.93;;;;;;;15.90;32.05;99495.34;5093525;28;20024;-41
2024/03/26 07:19:39;;;;;;;8.88;4.70;;;;;;;16.03;31.94;99508.44;5092833;28;20020;-40
2024/03/26 07:22:05;;;;;;;11.38;4.90;;;;;;;15.79;31.90;99515.03;5091714;28;20103;-40
2024/03/26 07:24:30;;;;;;;10.65;4.97;;;;;;;15.83;31.60;99508.91;5091244;28;20448;-42
2024/03/26 07:26:55;;;;;;;11.93;4.80;;;;;;;16.04;31.41;99506.56;5091606;28;20089;-42
2024/03/26 07:29:21;;;;;;;8.95;5.00;;;;;;;15.61;32.18;99506.13;5091308;28;20020;-40
2024/03/26 07:31:46;;;;;;;10.80;4.80;;;;;;;14.89;33.02;99513.88;5091899;28;20535;-40
2024/03/26 07:34:12;;;;;;;9.32;4.70;;;;;;;14.97;32.99;99511.63;5092040;28;20032;-41
2024/03/26 07:36:37;;;;;;;11.40;4.75;;;;;;;15.53;31.82;99511.84;5092454;28;20020;-41
2024/03/26 07:39:02;;;;;;;10.38;4.65;;;;;;;15.98;30.24;99491.44;5091818;28;20474;-41
2024/03/26 07:41:28;;;;;;;16.60;4.60;;;;;;;15.77;30.99;99501.03;5092573;28;20054;-40
2024/03/26 07:43:53;;;;;;;7.25;3.67;;;;;;;15.44;30.54;99495.38;5092786;28;20031;-43
2024/03/26 07:46:19;;;;;;;5.97;3.70;;;;;;;15.33;31.98;99498.91;5092919;28;20023;-40
2024/03/26 07:48:47;;;;;;;7.47;4.10;;;;;;;15.36;32.43;99497.59;5092666;28;20111;-40
2024/03/26 07:51:13;;;;;;;6.70;4.15;;;;;;;15.89;32.72;99493.72;5092768;28;20049;-43
2024/03/26 07:53:40;;;;;;;9.30;4.65;;;;;;;15.97;32.57;99493.31;5092784;28;20020;-41
2024/03/26 07:56:05;;;;;;;8.95;3.80;;;;;;;15.76;32.29;99491.34;5093258;28;20020;-43
2024/03/26 07:58:31;;;;;;;9.50;4.32;;;;;;;16.19;32.37;99484.50;5092966;28;20062;-41
2024/03/26 08:00:57;;;;;;;7.70;3.97;;;;;;;16.11;32.16;99474.19;5092749;28;20396;-41
2024/03/26 08:03:22;;;;;;;5.85;3.13;;;;;;;16.30;31.31;99472.84;5092799;28;20031;-43
2024/03/26 08:05:48;;;;;;;7.32;3.40;;;;;;;16.39;31.93;99471.38;5092898;28;20085;-40
2024/03/26 08:08:13;;;;;;;5.20;3.42;;;;;;;16.11;31.76;99474.19;5092744;28;20024;-42
2024/03/26 08:10:39;;;;;;;6.82;3.95;;;;;;;16.04;31.54;99463.63;5092406;28;20399;-42
2024/03/26 08:13:04;;;;;;;10.00;4.57;;;;;;;15.97;32.21;99471.00;5092520;28;20024;-42
2024/03/26 08:15:30;;;;;;;7.13;4.32;;;;;;;16.28;32.42;99474.13;5092199;28;20035;-39
2024/03/26 08:17:55;;;;;;;5.28;3.20;;;;;;;16.41;32.02;99471.94;5092496;28;20024;-41
2024/03/26 08:20:20;;;;;;;5.88;3.03;;;;;;;16.32;31.64;99480.66;5092544;28;20435;-42
2024/03/26 08:22:46;;;;;;;6.93;2.80;;;;;;;16.79;31.16;99485.53;5092400;28;20016;-42
2024/03/26 08:25:11;;;;;;;5.65;2.95;;;;;;;15.98;32.55;99483.38;5092806;28;20402;-43
2024/03/26 08:27:39;;;;;;;4.55;2.63;;;;;;;16.51;30.55;99473.94;5092330;28;20103;-42
2024/03/26 08:30:10;;;;;;;5.75;3.03;;;;;;;16.68;31.12;99462.28;5092056;28;20023;-41
2024/03/26 08:32:36;;;;;;;4.95;3.05;;;;;;;16.06;31.19;99453.44;5092044;28;20043;-44
2024/03/26 08:35:01;;;;;;;6.00;2.75;;;;;;;15.44;31.61;99454.34;5091007;28;20028;-40
2024/03/26 08:37:26;;;;;;;5.63;2.97;;;;;;;15.08;32.80;99453.72;5091680;28;20056;-41
2024/03/26 08:39:53;;;;;;;6.43;2.53;;;;;;;15.42;32.15;99459.09;5092070;28;20031;-40
2024/03/26 08:42:18;;;;;;;5.80;2.83;;;;;;;15.37;32.94;99461.72;5091986;28;20057;-44
2024/03/26 08:44:44;;;;;;;7.88;3.33;;;;;;;15.31;32.64;99468.06;5092293;28;20020;-44
2024/03/26 08:47:10;;;;;;;4.22;2.75;;;;;;;15.66;32.98;99464.34;5091800;28;20027;-45
2024/03/26 08:49:35;;;;;;;4.80;2.88;;;;;;;15.80;33.48;99461.13;5091769;28;20024;-38
2024/03/26 08:52:01;;;;;;;5.15;2.53;;;;;;;15.42;32.87;99459.09;5091947;28;20019;-41
2024/03/26 08:54:26;;;;;;;4.13;2.60;;;;;;;14.96;32.99;99469.00;5092068;28;20024;-40
2024/03/26 08:56:51;;;;;;;4.18;2.60;;;;;;;15.35;33.03;99461.94;5092138;28;20054;-42
2024/03/26 08:59:17;;;;;;;5.30;2.63;;;;;;;15.04;33.84;99463.25;5091598;28;20024;-42
2024/03/26 09:01:43;;;;;;;3.53;2.40;;;;;;;15.29;32.71;99462.09;5091415;28;20039;-41
2024/03/26 09:04:08;;;;;;;4.75;2.53;;;;;;;14.98;33.50;99472.25;5091788;28;20112;-44
2024/03/26 09:06:34;;;;;;;5.50;2.60;;;;;;;14.77;33.78;99465.69;5091662;28;20399;-42
2024/03/26 09:08:59;;;;;;;5.97;2.70;;;;;;;15.54;32.57;99467.09;5091767;28;20032;-41
2024/03/26 09:11:25;;;;;;;5.55;2.90;;;;;;;15.42;32.61;99467.97;5091942;28;20488;-42
2024/03/26 09:13:50;;;;;;;4.70;2.70;;;;;;;15.39;32.87;99462.28;5091403;28;20023;-44
2024/03/26 09:16:15;;;;;;;3.60;2.72;;;;;;;15.36;32.81;99460.88;5091394;28;20077;-43
2024/03/26 09:18:41;;;;;;;4.03;2.60;;;;;;;15.69;32.38;99463.84;5091192;28;20459;-42
2024/03/26 09:21:06;;;;;;;3.70;2.60;;;;;;;15.19;33.07;99463.56;5091070;28;20020;-41
2024/03/26 09:23:31;;;;;;;4.97;2.40;;;;;;;15.57;32.75;99451.34;5089816;28;20032;-38
2024/03/26 09:25:57;;;;;;;4.90;2.90;;;;;;;15.92;32.77;99452.97;5091275;28;20020;-41
2024/03/26 09:28:23;;;;;;;6.28;2.80;;;;;;;16.09;33.01;99444.06;5091291;28;20103;-43
2024/03/26 09:30:51;;;;;;;4.20;2.60;;;;;;;15.44;32.54;99448.97;5091045;28;20111;-41
2024/03/26 09:33:20;;;;;;;4.93;2.57;;;;;;;15.81;32.35;99445.84;5091348;28;20037;-46
2024/03/26 09:35:46;;;;;;;3.75;2.58;;;;;;;16.31;31.31;99444.13;5091314;28;20027;-45
2024/03/26 09:38:11;;;;;;;4.60;2.95;;;;;;;16.04;31.96;99434.09;5091254;28;20044;-43
2024/03/26 09:40:38;;;;;;;3.88;2.45;;;;;;;15.64;31.79;99432.38;5091069;28;20016;-45
2024/03/26 09:43:07;;;;;;;3.30;2.20;;;;;;;15.87;31.28;99430.63;5091364;28;20028;-44
2024/03/26 09:45:34;;;;;;;5.43;2.08;;;;;;;15.86;31.67;99437.03;5091251;28;20107;-39
2024/03/26 09:48:01;;;;;;;2.95;2.10;;;;;;;15.75;30.84;99438.78;5094574;28;20035;-41
2024/03/26 09:50:30;;;;;;;3.10;2.38;;;;;;;15.81;31.74;99432.41;5094047;28;20028;-42
2024/03/26 09:52:57;;;;;;;;;;;;;;;15.94;29.37;99424.03;5095786;28;20133;-41
2024/03/26 09:55:27;;;;;;;3.58;2.22;;;;;;;15.28;30.58;99429.13;5095276;28;19907;-44
2024/03/26 09:57:53;;;;;;;3.35;2.08;;;;;;;15.42;30.55;99411.69;5094954;28;20520;-41
2024/03/26 10:00:19;;;;;;;3.13;2.25;;;;;;;15.61;31.33;99424.81;5094965;28;20107;-40
2024/03/26 10:02:46;;;;;;;4.50;2.28;;;;;;;15.75;30.64;99417.31;5095261;28;20047;-42
2024/03/26 10:05:16;;;;;;;3.45;2.05;;;;;;;15.46;30.81;99406.63;5095076;28;20100;-40
2024/03/26 10:07:45;;;;;;;3.40;1.98;;;;;;;15.23;30.69;99404.91;5095169;28;20112;-45
2024/03/26 10:10:11;;;;;;;4.05;1.92;;;;;;;15.45;29.34;99394.28;5095193;28;20085;-43
2024/03/26 10:12:41;;;;;;;1.83;1.50;;;;;;;15.43;29.97;99407.13;5094891;28;20024;-41
2024/03/26 10:15:07;;;;;;;3.33;1.98;;;;;;;15.41;30.33;99403.88;5094823;28;20414;-42
2024/03/26 10:17:36;;;;;;;6.00;1.77;;;;;;;15.64;30.92;99406.38;5094740;28;20024;-40
2024/03/26 10:20:05;;;;;;;3.28;2.00;;;;;;;15.98;30.08;99402.88;5094747;28;20016;-46
2024/03/26 10:22:30;;;;;;;4.63;1.88;;;;;;;15.98;30.09;99405.56;5094897;28;20121;-42
2024/03/26 10:24:56;;;;;;;4.53;1.80;;;;;;;15.71;29.97;99398.19;5094852;28;20483;-45
2024/03/26 10:27:21;;;;;;;1.80;1.40;;;;;;;15.87;29.05;99385.00;5094852;28;20024;-42
2024/03/26 10:29:48;;;;;;;1.85;1.50;;;;;;;15.95;28.51;99384.59;5094932;28;20110;-41
2024/03/26 10:32:16;;;;;;;1.52;1.17;;;;;;;15.72;28.36;99374.84;5094527;28;20023;-43
2024/03/26 10:34:43;;;;;;;2.08;1.50;;;;;;;15.35;28.48;99381.53;5094569;28;20476;-41
2024/03/26 10:37:09;;;;;;;2.08;1.40;;;;;;;15.71;28.59;99378.59;5094722;28;20028;-44
2024/03/26 10:39:36;;;;;;;3.38;1.65;;;;;;;16.14;28.43;99385.91;5094738;28;20513;-41
2024/03/26 10:42:03;;;;;;;4.93;1.70;;;;;;;15.81;28.01;99376.06;5094456;28;20047;-42
2024/03/26 10:44:30;;;;;;;2.22;1.60;;;;;;;15.93;28.30;99384.81;5094551;28;20035;-42
2024/03/26 10:46:57;;;;;;;1.90;1.70;;;;;;;16.31;28.48;99385.84;5094551;28;20070;-41
2024/03/26 10:49:25;;;;;;;3.47;1.70;;;;;;;15.80;28.67;99388.69;5094127;28;20020;-42
2024/03/26 10:51:52;;;;;;;2.60;1.90;;;;;;;15.65;29.57;99385.75;5094280;28;20138;-42
2024/03/26 10:54:18;;;;;;;2.20;1.73;;;;;;;16.15;28.29;99373.31;5094256;28;20104;-41
2024/03/26 10:56:46;;;;;;;2.70;1.73;;;;;;;16.27;28.67;99370.50;5094321;28;20103;-42
2024/03/26 10:59:12;;;;;;;3.15;1.58;;;;;;;15.57;29.17;99378.94;5093326;28;20032;-40
2024/03/26 11:01:38;;;;;;;2.85;1.73;;;;;;;15.57;28.81;99356.66;5094004;28;20024;-40
2024/03/26 11:04:04;;;;;;;5.13;1.70;;;;;;;15.64;29.19;99358.09;5093905;28;20479;-42
2024/03/26 11:06:29;;;;;;;2.10;1.60;;;;;;;15.97;28.84;99353.78;5094031;28;20026;-40
2024/03/26 11:09:01;;;;;;;3.22;1.92;;;;;;;15.92;29.38;99356.38;5093907;28;20024;-42
2024/03/26 11:11:32;;;;;;;3.00;1.70;;;;;;;16.63;28.66;99360.19;5093962;28;20024;-41
2024/03/26 11:13:58;;;;;;;2.97;1.70;;;;;;;16.60;28.05;99346.19;5093493;28;20111;-44
2024/03/26 11:16:58;;;;;;;2.50;1.73;;;;;;;16.63;28.05;99347.56;5093853;28;20102;-40
2024/03/26 11:19:25;;;;;;;3.20;1.77;;;;;;;16.75;27.89;99342.84;5079279;28;20389;-44
2024/03/26 11:21:55;;;;;;;3.25;1.90;;;;;;;16.31;28.82;99344.78;5093352;28;20028;-41
2024/03/26 11:24:29;;;;;;;3.10;1.60;;;;;;;16.19;28.91;99337.66;5093922;28;20042;-42
2024/03/26 11:26:57;;;;;;;1.90;1.60;;;;;;;16.33;28.74;99326.53;5093621;28;20035;-40
2024/03/26 11:29:24;;;;;;;4.78;1.50;;;;;;;16.26;28.38;99332.13;5093502;28;20044;-41